sensor_id;sensor_type;location;lat;lon;timestamp;pressure;altitude;pressure_sealevel;temperature;humidity
4745;BME280;2386;42.138;24.746;2023-11-22T00:01:03;98999.44;;;10.84;94.04
4745;BME280;2386;42.138;24.746;2023-11-22T00:03:28;99001.41;;;10.89;94.47
4745;BME280;2386;42.138;24.746;2023-11-22T00:05:54;99003.47;;;10.99;93.50
4745;BME280;2386;42.138;24.746;2023-11-22T00:08:19;98988.81;;;11.00;93.45
4745;BME280;2386;42.138;24.746;2023-11-22T00:10:44;98989.34;;;11.18;92.42
4745;BME280;2386;42.138;24.746;2023-11-22T00:13:10;98987.41;;;11.36;90.86
4745;BME280;2386;42.138;24.746;2023-11-22T00:15:37;98984.44;;;11.37;90.99
4745;BME280;2386;42.138;24.746;2023-11-22T00:18:02;98987.97;;;11.38;91.49
4745;BME280;2386;42.138;24.746;2023-11-22T00:20:29;98982.94;;;11.46;91.27
4745;BME280;2386;42.138;24.746;2023-11-22T00:22:54;98978.56;;;11.45;91.18
4745;BME280;2386;42.138;24.746;2023-11-22T00:25:19;98975.91;;;11.50;89.56
4745;BME280;2386;42.138;24.746;2023-11-22T00:27:45;98972.25;;;11.40;88.21
4745;BME280;2386;42.138;24.746;2023-11-22T00:30:12;98977.63;;;11.35;89.40
4745;BME280;2386;42.138;24.746;2023-11-22T00:32:37;98981.50;;;11.22;89.81
4745;BME280;2386;42.138;24.746;2023-11-22T00:35:03;98989.75;;;10.89;91.13
4745;BME280;2386;42.138;24.746;2023-11-22T00:37:29;98987.59;;;10.91;91.43
4745;BME280;2386;42.138;24.746;2023-11-22T00:39:54;98980.19;;;11.03;91.93
4745;BME280;2386;42.138;24.746;2023-11-22T00:42:20;98968.94;;;11.16;90.58
4745;BME280;2386;42.138;24.746;2023-11-22T00:44:46;98979.78;;;11.16;91.14
4745;BME280;2386;42.138;24.746;2023-11-22T00:47:11;98965.22;;;11.00;91.12
4745;BME280;2386;42.138;24.746;2023-11-22T00:49:36;98967.81;;;11.12;90.80
4745;BME280;2386;42.138;24.746;2023-11-22T00:52:02;98971.22;;;11.24;90.07
4745;BME280;2386;42.138;24.746;2023-11-22T00:54:28;98968.44;;;11.19;90.50
4745;BME280;2386;42.138;24.746;2023-11-22T00:56:53;98983.22;;;11.28;90.26
4745;BME280;2386;42.138;24.746;2023-11-22T00:59:19;98981.50;;;11.00;89.52
4745;BME280;2386;42.138;24.746;2023-11-22T01:01:45;98976.41;;;11.04;91.60
4745;BME280;2386;42.138;24.746;2023-11-22T01:04:10;98974.19;;;11.23;89.02
4745;BME280;2386;42.138;24.746;2023-11-22T01:06:36;98969.91;;;11.27;89.65
4745;BME280;2386;42.138;24.746;2023-11-22T01:09:02;98965.28;;;11.27;88.48
4745;BME280;2386;42.138;24.746;2023-11-22T01:11:28;98960.25;;;11.36;88.72
4745;BME280;2386;42.138;24.746;2023-11-22T01:13:53;98957.97;;;11.28;88.02
4745;BME280;2386;42.138;24.746;2023-11-22T01:16:18;98951.09;;;11.42;88.53
4745;BME280;2386;42.138;24.746;2023-11-22T01:18:44;98957.97;;;11.49;88.80
4745;BME280;2386;42.138;24.746;2023-11-22T01:21:11;98960.88;;;11.43;88.63
4745;BME280;2386;42.138;24.746;2023-11-22T01:23:37;98965.00;;;11.45;88.73
4745;BME280;2386;42.138;24.746;2023-11-22T01:26:02;98959.06;;;11.48;87.79
4745;BME280;2386;42.138;24.746;2023-11-22T01:28:28;98957.66;;;11.46;87.60
4745;BME280;2386;42.138;24.746;2023-11-22T01:30:54;98961.38;;;11.40;86.15
4745;BME280;2386;42.138;24.746;2023-11-22T01:33:21;98960.75;;;11.33;86.71
4745;BME280;2386;42.138;24.746;2023-11-22T01:35:46;98961.44;;;11.45;85.65
4745;BME280;2386;42.138;24.746;2023-11-22T01:38:12;98959.69;;;11.34;86.62
4745;BME280;2386;42.138;24.746;2023-11-22T01:40:46;98949.13;;;11.37;86.64
4745;BME280;2386;42.138;24.746;2023-11-22T01:43:17;98948.13;;;11.43;86.18
4745;BME280;2386;42.138;24.746;2023-11-22T01:45:43;98944.59;;;11.43;87.83
4745;BME280;2386;42.138;24.746;2023-11-22T01:48:10;98948.25;;;11.32;87.47
4745;BME280;2386;42.138;24.746;2023-11-22T01:50:40;98952.03;;;11.31;87.08
4745;BME280;2386;42.138;24.746;2023-11-22T01:53:07;98950.72;;;11.33;86.74
4745;BME280;2386;42.138;24.746;2023-11-22T01:55:34;98946.16;;;11.39;87.29
4745;BME280;2386;42.138;24.746;2023-11-22T01:58:00;98940.16;;;11.37;88.29
4745;BME280;2386;42.138;24.746;2023-11-22T02:00:32;98932.09;;;11.20;88.00
4745;BME280;2386;42.138;24.746;2023-11-22T02:02:57;98936.31;;;11.33;88.02
4745;BME280;2386;42.138;24.746;2023-11-22T02:05:23;98929.25;;;11.32;88.42
4745;BME280;2386;42.138;24.746;2023-11-22T02:07:48;98937.31;;;11.27;88.71
4745;BME280;2386;42.138;24.746;2023-11-22T02:10:14;98932.34;;;11.40;87.77
4745;BME280;2386;42.138;24.746;2023-11-22T02:12:39;98932.47;;;11.50;87.96
4745;BME280;2386;42.138;24.746;2023-11-22T02:15:06;98924.06;;;11.30;88.20
4745;BME280;2386;42.138;24.746;2023-11-22T02:17:31;98938.91;;;11.44;87.81
4745;BME280;2386;42.138;24.746;2023-11-22T02:19:59;98931.31;;;11.25;88.00
4745;BME280;2386;42.138;24.746;2023-11-22T02:22:25;98943.97;;;11.14;89.24
4745;BME280;2386;42.138;24.746;2023-11-22T02:24:50;98931.25;;;11.19;89.38
4745;BME280;2386;42.138;24.746;2023-11-22T02:27:15;98922.34;;;11.24;89.86
4745;BME280;2386;42.138;24.746;2023-11-22T02:29:41;98922.09;;;11.26;90.16
4745;BME280;2386;42.138;24.746;2023-11-22T02:32:06;98936.25;;;11.28;90.34
4745;BME280;2386;42.138;24.746;2023-11-22T02:34:32;98922.34;;;11.24;91.52
4745;BME280;2386;42.138;24.746;2023-11-22T02:36:57;98928.22;;;11.38;90.44
4745;BME280;2386;42.138;24.746;2023-11-22T02:39:30;98928.03;;;11.23;90.10
4745;BME280;2386;42.138;24.746;2023-11-22T02:41:58;98928.78;;;11.18;90.39
4745;BME280;2386;42.138;24.746;2023-11-22T02:44:24;98927.09;;;11.34;90.19
4745;BME280;2386;42.138;24.746;2023-11-22T02:46:49;98921.13;;;11.10;91.72
4745;BME280;2386;42.138;24.746;2023-11-22T02:49:14;98923.50;;;11.06;93.54
4745;BME280;2386;42.138;24.746;2023-11-22T02:51:40;98923.84;;;11.10;92.89
4745;BME280;2386;42.138;24.746;2023-11-22T02:54:05;98931.25;;;11.19;91.96
4745;BME280;2386;42.138;24.746;2023-11-22T02:56:31;98931.00;;;11.21;92.55
4745;BME280;2386;42.138;24.746;2023-11-22T02:58:56;98927.28;;;11.27;91.51
4745;BME280;2386;42.138;24.746;2023-11-22T03:01:22;98931.75;;;11.16;92.17
4745;BME280;2386;42.138;24.746;2023-11-22T03:03:47;98937.44;;;10.93;94.03
4745;BME280;2386;42.138;24.746;2023-11-22T03:06:12;98949.59;;;11.07;92.78
4745;BME280;2386;42.138;24.746;2023-11-22T03:08:38;98943.78;;;10.82;95.18
4745;BME280;2386;42.138;24.746;2023-11-22T03:11:03;98937.78;;;10.80;96.59
4745;BME280;2386;42.138;24.746;2023-11-22T03:13:28;98933.50;;;10.84;96.91
4745;BME280;2386;42.138;24.746;2023-11-22T03:15:54;98932.03;;;10.76;96.91
4745;BME280;2386;42.138;24.746;2023-11-22T03:18:20;98926.78;;;10.70;97.82
4745;BME280;2386;42.138;24.746;2023-11-22T03:20:46;98929.50;;;10.70;96.62
4745;BME280;2386;42.138;24.746;2023-11-22T03:23:12;98918.31;;;10.83;96.43
4745;BME280;2386;42.138;24.746;2023-11-22T03:25:37;98903.56;;;10.96;96.46
4745;BME280;2386;42.138;24.746;2023-11-22T03:28:03;98896.06;;;11.03;96.02
4745;BME280;2386;42.138;24.746;2023-11-22T03:30:28;98887.28;;;10.96;97.58
4745;BME280;2386;42.138;24.746;2023-11-22T03:32:53;98887.22;;;11.12;95.20
4745;BME280;2386;42.138;24.746;2023-11-22T03:35:20;98885.13;;;11.19;94.21
4745;BME280;2386;42.138;24.746;2023-11-22T03:37:46;98898.81;;;10.86;95.16
4745;BME280;2386;42.138;24.746;2023-11-22T03:40:12;98909.31;;;10.99;95.86
4745;BME280;2386;42.138;24.746;2023-11-22T03:42:39;98919.84;;;11.17;94.97
4745;BME280;2386;42.138;24.746;2023-11-22T03:45:05;98920.03;;;11.11;95.42
4745;BME280;2386;42.138;24.746;2023-11-22T03:47:31;98936.09;;;11.12;95.52
4745;BME280;2386;42.138;24.746;2023-11-22T03:49:58;98935.91;;;10.80;96.09
4745;BME280;2386;42.138;24.746;2023-11-22T03:52:23;98930.22;;;10.82;97.22
4745;BME280;2386;42.138;24.746;2023-11-22T03:54:49;98927.91;;;10.91;97.18
4745;BME280;2386;42.138;24.746;2023-11-22T03:57:14;98920.97;;;11.00;97.14
4745;BME280;2386;42.138;24.746;2023-11-22T03:59:40;98916.69;;;11.04;96.63
4745;BME280;2386;42.138;24.746;2023-11-22T04:02:05;98926.72;;;11.03;96.40
4745;BME280;2386;42.138;24.746;2023-11-22T04:04:32;98920.81;;;11.06;96.03
4745;BME280;2386;42.138;24.746;2023-11-22T04:06:57;98929.00;;;11.11;95.55
4745;BME280;2386;42.138;24.746;2023-11-22T04:09:23;98931.34;;;11.03;95.86
4745;BME280;2386;42.138;24.746;2023-11-22T04:11:49;98951.09;;;10.98;96.86
4745;BME280;2386;42.138;24.746;2023-11-22T04:14:14;98946.44;;;10.77;97.16
4745;BME280;2386;42.138;24.746;2023-11-22T04:16:39;98944.69;;;10.88;97.16
4745;BME280;2386;42.138;24.746;2023-11-22T04:19:05;98939.22;;;11.04;96.54
4745;BME280;2386;42.138;24.746;2023-11-22T04:21:31;98938.72;;;11.07;96.42
4745;BME280;2386;42.138;24.746;2023-11-22T04:23:56;98926.66;;;11.20;96.00
4745;BME280;2386;42.138;24.746;2023-11-22T04:26:23;98939.78;;;11.28;95.51
4745;BME280;2386;42.138;24.746;2023-11-22T04:28:49;98925.97;;;11.30;94.83
4745;BME280;2386;42.138;24.746;2023-11-22T04:31:15;98948.31;;;11.37;94.07
4745;BME280;2386;42.138;24.746;2023-11-22T04:33:40;98950.97;;;11.32;94.03
4745;BME280;2386;42.138;24.746;2023-11-22T04:36:06;98960.69;;;11.28;94.48
4745;BME280;2386;42.138;24.746;2023-11-22T04:38:32;98979.13;;;11.26;96.30
4745;BME280;2386;42.138;24.746;2023-11-22T04:40:59;98954.25;;;11.34;94.00
4745;BME280;2386;42.138;24.746;2023-11-22T04:43:24;98949.00;;;11.27;93.03
4745;BME280;2386;42.138;24.746;2023-11-22T04:45:50;98961.31;;;11.35;92.49
4745;BME280;2386;42.138;24.746;2023-11-22T04:48:15;98975.47;;;11.37;91.58
4745;BME280;2386;42.138;24.746;2023-11-22T04:50:41;98981.25;;;11.24;91.14
4745;BME280;2386;42.138;24.746;2023-11-22T04:53:08;99001.34;;;11.23;93.38
4745;BME280;2386;42.138;24.746;2023-11-22T04:55:33;98995.41;;;11.26;94.59
4745;BME280;2386;42.138;24.746;2023-11-22T04:57:59;98995.97;;;11.28;94.49
4745;BME280;2386;42.138;24.746;2023-11-22T05:00:24;98994.41;;;11.32;92.97
4745;BME280;2386;42.138;24.746;2023-11-22T05:02:50;99001.47;;;11.33;93.98
4745;BME280;2386;42.138;24.746;2023-11-22T05:05:15;99011.84;;;11.36;92.33
4745;BME280;2386;42.138;24.746;2023-11-22T05:07:41;99028.78;;;11.43;92.12
4745;BME280;2386;42.138;24.746;2023-11-22T05:10:07;99026.25;;;11.36;89.72
4745;BME280;2386;42.138;24.746;2023-11-22T05:12:36;99027.75;;;11.27;90.26
4745;BME280;2386;42.138;24.746;2023-11-22T05:15:02;99036.09;;;11.04;90.40
4745;BME280;2386;42.138;24.746;2023-11-22T05:17:28;99025.69;;;11.17;90.68
4745;BME280;2386;42.138;24.746;2023-11-22T05:19:53;99028.81;;;11.26;91.40
4745;BME280;2386;42.138;24.746;2023-11-22T05:22:19;99028.47;;;11.23;89.09
4745;BME280;2386;42.138;24.746;2023-11-22T05:24:44;99030.69;;;11.26;89.14
4745;BME280;2386;42.138;24.746;2023-11-22T05:27:10;99025.34;;;11.31;88.98
4745;BME280;2386;42.138;24.746;2023-11-22T05:29:35;99018.59;;;11.33;89.75
4745;BME280;2386;42.138;24.746;2023-11-22T05:32:01;99023.03;;;11.39;89.11
4745;BME280;2386;42.138;24.746;2023-11-22T05:34:28;99044.06;;;11.49;88.45
4745;BME280;2386;42.138;24.746;2023-11-22T05:36:53;99048.47;;;11.33;88.61
4745;BME280;2386;42.138;24.746;2023-11-22T05:39:19;99038.03;;;11.25;89.39
4745;BME280;2386;42.138;24.746;2023-11-22T05:41:47;99042.63;;;11.25;90.15
4745;BME280;2386;42.138;24.746;2023-11-22T05:44:14;99058.91;;;11.25;90.17
4745;BME280;2386;42.138;24.746;2023-11-22T05:46:39;99066.31;;;11.29;90.90
4745;BME280;2386;42.138;24.746;2023-11-22T05:49:06;99075.84;;;11.32;91.02
4745;BME280;2386;42.138;24.746;2023-11-22T05:51:32;99073.88;;;11.27;90.24
4745;BME280;2386;42.138;24.746;2023-11-22T05:53:59;99087.03;;;11.35;89.97
4745;BME280;2386;42.138;24.746;2023-11-22T05:56:24;99082.69;;;11.17;91.84
4745;BME280;2386;42.138;24.746;2023-11-22T05:58:49;99082.13;;;11.15;92.27
4745;BME280;2386;42.138;24.746;2023-11-22T06:01:15;99084.13;;;11.03;93.04
4745;BME280;2386;42.138;24.746;2023-11-22T06:03:40;99080.44;;;11.09;92.59
4745;BME280;2386;42.138;24.746;2023-11-22T06:06:06;99088.84;;;11.30;92.29
4745;BME280;2386;42.138;24.746;2023-11-22T06:08:32;99090.66;;;11.41;92.03
4745;BME280;2386;42.138;24.746;2023-11-22T06:10:57;99093.94;;;11.43;91.72
4745;BME280;2386;42.138;24.746;2023-11-22T06:13:24;99081.59;;;11.52;91.19
4745;BME280;2386;42.138;24.746;2023-11-22T06:15:50;99068.09;;;11.57;90.66
4745;BME280;2386;42.138;24.746;2023-11-22T06:18:15;99073.00;;;11.60;90.19
4745;BME280;2386;42.138;24.746;2023-11-22T06:20:41;99069.41;;;11.55;90.26
4745;BME280;2386;42.138;24.746;2023-11-22T06:23:07;99082.38;;;11.69;89.15
4745;BME280;2386;42.138;24.746;2023-11-22T06:25:33;99075.31;;;11.68;90.74
4745;BME280;2386;42.138;24.746;2023-11-22T06:28:01;99077.13;;;11.63;91.92
4745;BME280;2386;42.138;24.746;2023-11-22T06:30:26;99078.50;;;11.65;92.53
4745;BME280;2386;42.138;24.746;2023-11-22T06:32:52;99096.53;;;11.71;92.54
4745;BME280;2386;42.138;24.746;2023-11-22T06:35:17;99101.31;;;11.64;94.58
4745;BME280;2386;42.138;24.746;2023-11-22T06:37:43;99107.91;;;11.68;93.32
4745;BME280;2386;42.138;24.746;2023-11-22T06:40:10;99107.91;;;11.68;93.54
4745;BME280;2386;42.138;24.746;2023-11-22T06:42:38;99109.72;;;11.79;95.64
4745;BME280;2386;42.138;24.746;2023-11-22T06:45:05;99121.91;;;11.77;96.47
4745;BME280;2386;42.138;24.746;2023-11-22T06:47:32;99130.63;;;11.62;98.65
4745;BME280;2386;42.138;24.746;2023-11-22T06:49:57;99128.44;;;11.26;100.00
4745;BME280;2386;42.138;24.746;2023-11-22T06:52:23;99132.13;;;11.53;100.00
4745;BME280;2386;42.138;24.746;2023-11-22T06:54:49;99136.06;;;11.62;100.00
4745;BME280;2386;42.138;24.746;2023-11-22T06:57:14;99135.88;;;11.69;100.00
4745;BME280;2386;42.138;24.746;2023-11-22T06:59:40;99141.09;;;11.53;100.00
4745;BME280;2386;42.138;24.746;2023-11-22T07:02:05;99148.59;;;11.46;99.40
4745;BME280;2386;42.138;24.746;2023-11-22T07:04:32;99150.22;;;11.64;100.00
4745;BME280;2386;42.138;24.746;2023-11-22T07:06:58;99144.28;;;11.67;99.36
4745;BME280;2386;42.138;24.746;2023-11-22T07:09:23;99138.44;;;11.75;98.72
4745;BME280;2386;42.138;24.746;2023-11-22T07:11:48;99119.38;;;11.92;98.03
4745;BME280;2386;42.138;24.746;2023-11-22T07:14:15;99113.56;;;12.05;96.30
4745;BME280;2386;42.138;24.746;2023-11-22T07:16:41;99121.28;;;12.13;95.02
4745;BME280;2386;42.138;24.746;2023-11-22T07:19:07;99117.84;;;12.01;95.38
4745;BME280;2386;42.138;24.746;2023-11-22T07:21:32;99123.88;;;12.03;95.75
4745;BME280;2386;42.138;24.746;2023-11-22T07:23:58;99135.13;;;12.12;95.81
4745;BME280;2386;42.138;24.746;2023-11-22T07:26:27;99134.63;;;12.15;96.50
4745;BME280;2386;42.138;24.746;2023-11-22T07:28:55;99134.31;;;12.11;95.94
4745;BME280;2386;42.138;24.746;2023-11-22T07:31:20;99132.16;;;12.13;96.66
4745;BME280;2386;42.138;24.746;2023-11-22T07:33:47;99144.34;;;12.11;96.43
4745;BME280;2386;42.138;24.746;2023-11-22T07:36:13;99134.56;;;11.71;97.75
4745;BME280;2386;42.138;24.746;2023-11-22T07:38:42;99135.44;;;11.94;96.10
4745;BME280;2386;42.138;24.746;2023-11-22T07:41:10;99139.72;;;11.90;96.23
4745;BME280;2386;42.138;24.746;2023-11-22T07:43:35;99145.03;;;12.01;96.92
4745;BME280;2386;42.138;24.746;2023-11-22T07:46:05;99132.97;;;12.14;96.36
4745;BME280;2386;42.138;24.746;2023-11-22T07:48:33;99130.19;;;12.09;96.79
4745;BME280;2386;42.138;24.746;2023-11-22T07:51:02;99147.19;;;12.21;98.00
4745;BME280;2386;42.138;24.746;2023-11-22T07:53:28;99153.28;;;12.28;98.95
4745;BME280;2386;42.138;24.746;2023-11-22T07:55:54;99141.94;;;12.36;97.60
4745;BME280;2386;42.138;24.746;2023-11-22T07:58:20;99148.34;;;12.47;95.50
4745;BME280;2386;42.138;24.746;2023-11-22T08:00:45;99161.31;;;12.18;96.31
4745;BME280;2386;42.138;24.746;2023-11-22T08:03:11;99164.47;;;11.88;100.00
4745;BME280;2386;42.138;24.746;2023-11-22T08:05:40;99172.34;;;11.90;100.00
4745;BME280;2386;42.138;24.746;2023-11-22T08:08:06;99159.38;;;11.97;100.00
4745;BME280;2386;42.138;24.746;2023-11-22T08:10:37;99160.59;;;11.84;100.00
4745;BME280;2386;42.138;24.746;2023-11-22T08:13:03;99161.34;;;12.01;100.00
4745;BME280;2386;42.138;24.746;2023-11-22T08:15:29;99167.53;;;11.97;100.00
4745;BME280;2386;42.138;24.746;2023-11-22T08:17:54;99163.88;;;12.08;100.00
4745;BME280;2386;42.138;24.746;2023-11-22T08:20:20;99166.75;;;12.18;100.00
4745;BME280;2386;42.138;24.746;2023-11-22T08:22:46;99157.06;;;12.05;100.00
4745;BME280;2386;42.138;24.746;2023-11-22T08:25:12;99167.63;;;12.24;100.00
4745;BME280;2386;42.138;24.746;2023-11-22T08:27:40;99160.84;;;12.26;100.00
4745;BME280;2386;42.138;24.746;2023-11-22T08:30:07;99165.84;;;12.34;100.00
4745;BME280;2386;42.138;24.746;2023-11-22T08:32:41;99164.28;;;12.38;100.00
4745;BME280;2386;42.138;24.746;2023-11-22T08:35:08;99156.06;;;12.33;100.00
4745;BME280;2386;42.138;24.746;2023-11-22T08:37:34;99146.25;;;12.32;100.00
4745;BME280;2386;42.138;24.746;2023-11-22T08:40:04;99156.06;;;12.33;100.00
4745;BME280;2386;42.138;24.746;2023-11-22T08:42:29;99162.38;;;12.39;100.00
4745;BME280;2386;42.138;24.746;2023-11-22T08:44:55;99169.47;;;12.40;100.00
4745;BME280;2386;42.138;24.746;2023-11-22T08:47:21;99177.38;;;12.41;100.00
4745;BME280;2386;42.138;24.746;2023-11-22T08:49:46;99167.25;;;12.37;100.00
4745;BME280;2386;42.138;24.746;2023-11-22T08:52:13;99169.72;;;12.38;100.00
4745;BME280;2386;42.138;24.746;2023-11-22T08:54:38;99176.34;;;12.47;100.00
4745;BME280;2386;42.138;24.746;2023-11-22T08:57:04;99160.66;;;12.11;100.00
4745;BME280;2386;42.138;24.746;2023-11-22T08:59:31;99154.59;;;12.04;100.00
4745;BME280;2386;42.138;24.746;2023-11-22T09:01:58;99169.25;;;12.03;100.00
4745;BME280;2386;42.138;24.746;2023-11-22T09:04:23;99170.06;;;11.81;100.00
4745;BME280;2386;42.138;24.746;2023-11-22T09:06:51;99171.03;;;12.14;100.00
4745;BME280;2386;42.138;24.746;2023-11-22T09:09:16;99163.81;;;12.03;100.00
4745;BME280;2386;42.138;24.746;2023-11-22T09:11:42;99165.53;;;12.31;100.00
4745;BME280;2386;42.138;24.746;2023-11-22T09:14:07;99161.38;;;12.45;100.00
4745;BME280;2386;42.138;24.746;2023-11-22T09:16:38;99173.19;;;12.56;100.00
4745;BME280;2386;42.138;24.746;2023-11-22T09:19:06;99177.88;;;12.38;100.00
4745;BME280;2386;42.138;24.746;2023-11-22T09:21:32;99173.50;;;12.37;100.00
4745;BME280;2386;42.138;24.746;2023-11-22T09:23:58;99174.66;;;12.41;99.17
4745;BME280;2386;42.138;24.746;2023-11-22T09:26:24;99177.81;;;12.55;100.00
4745;BME280;2386;42.138;24.746;2023-11-22T09:28:49;99175.97;;;12.61;100.00
4745;BME280;2386;42.138;24.746;2023-11-22T09:31:14;99181.03;;;12.79;97.05
4745;BME280;2386;42.138;24.746;2023-11-22T09:33:45;99183.06;;;12.89;98.70
4745;BME280;2386;42.138;24.746;2023-11-22T09:36:12;99182.28;;;12.93;100.00
4745;BME280;2386;42.138;24.746;2023-11-22T09:38:38;99188.50;;;12.89;95.44
4745;BME280;2386;42.138;24.746;2023-11-22T09:41:03;99187.09;;;12.86;96.44
4745;BME280;2386;42.138;24.746;2023-11-22T09:43:29;99193.44;;;12.92;95.96
4745;BME280;2386;42.138;24.746;2023-11-22T09:45:57;99174.13;;;12.93;93.67
4745;BME280;2386;42.138;24.746;2023-11-22T09:48:24;99188.63;;;12.77;94.79
4745;BME280;2386;42.138;24.746;2023-11-22T09:53:43;99195.09;;;13.20;96.97
4745;BME280;2386;42.138;24.746;2023-11-22T09:56:12;99197.34;;;13.28;99.83
4745;BME280;2386;42.138;24.746;2023-11-22T09:58:41;99188.72;;;13.41;100.00
4745;BME280;2386;42.138;24.746;2023-11-22T10:01:11;99182.28;;;13.52;98.30
4745;BME280;2386;42.138;24.746;2023-11-22T10:03:36;99190.41;;;13.47;90.45
4745;BME280;2386;42.138;24.746;2023-11-22T10:06:02;99187.28;;;13.65;90.63
4745;BME280;2386;42.138;24.746;2023-11-22T10:08:29;99183.19;;;13.63;92.20
4745;BME280;2386;42.138;24.746;2023-11-22T10:10:55;99177.34;;;13.49;92.38
4745;BME280;2386;42.138;24.746;2023-11-22T10:13:21;99180.16;;;13.59;92.59
4745;BME280;2386;42.138;24.746;2023-11-22T10:15:48;99181.31;;;13.68;92.49
4745;BME280;2386;42.138;24.746;2023-11-22T10:18:14;99178.13;;;13.81;93.44
4745;BME280;2386;42.138;24.746;2023-11-22T10:20:41;99179.66;;;13.67;92.04
4745;BME280;2386;42.138;24.746;2023-11-22T10:23:14;99186.25;;;13.71;93.36
4745;BME280;2386;42.138;24.746;2023-11-22T10:25:50;99177.69;;;13.58;93.90
4745;BME280;2386;42.138;24.746;2023-11-22T10:28:20;99185.56;;;13.54;93.71
4745;BME280;2386;42.138;24.746;2023-11-22T10:30:46;99177.94;;;13.56;93.88
4745;BME280;2386;42.138;24.746;2023-11-22T10:33:12;99179.59;;;13.57;92.93
4745;BME280;2386;42.138;24.746;2023-11-22T10:35:45;99171.34;;;13.47;93.49
4745;BME280;2386;42.138;24.746;2023-11-22T10:38:19;99175.72;;;13.48;94.26
4745;BME280;2386;42.138;24.746;2023-11-22T10:40:45;99180.06;;;13.49;94.14
4745;BME280;2386;42.138;24.746;2023-11-22T10:43:16;99183.25;;;13.36;96.60
4745;BME280;2386;42.138;24.746;2023-11-22T10:45:43;99193.34;;;13.35;97.66
4745;BME280;2386;42.138;24.746;2023-11-22T10:48:14;99185.44;;;13.34;100.00
4745;BME280;2386;42.138;24.746;2023-11-22T10:50:43;99176.31;;;13.55;100.00
4745;BME280;2386;42.138;24.746;2023-11-22T10:53:15;99176.38;;;13.28;100.00
4745;BME280;2386;42.138;24.746;2023-11-22T10:55:45;99176.91;;;13.25;100.00
4745;BME280;2386;42.138;24.746;2023-11-22T10:58:13;99184.31;;;13.30;100.00
4745;BME280;2386;42.138;24.746;2023-11-22T11:00:41;99184.34;;;13.40;100.00
4745;BME280;2386;42.138;24.746;2023-11-22T11:03:14;99186.59;;;13.48;100.00
4745;BME280;2386;42.138;24.746;2023-11-22T11:05:57;99189.06;;;13.49;99.50
4745;BME280;2386;42.138;24.746;2023-11-22T11:08:25;99185.16;;;13.72;99.39
4745;BME280;2386;42.138;24.746;2023-11-22T11:10:53;99186.28;;;13.76;98.39
4745;BME280;2386;42.138;24.746;2023-11-22T11:13:21;99173.53;;;13.50;99.87
4745;BME280;2386;42.138;24.746;2023-11-22T11:15:47;99180.03;;;13.44;100.00
4745;BME280;2386;42.138;24.746;2023-11-22T11:18:14;99183.38;;;13.51;100.00
4745;BME280;2386;42.138;24.746;2023-11-22T11:20:51;99192.06;;;13.48;100.00
4745;BME280;2386;42.138;24.746;2023-11-22T11:23:20;99198.72;;;13.62;100.00
4745;BME280;2386;42.138;24.746;2023-11-22T11:26:09;99201.91;;;13.54;100.00
4745;BME280;2386;42.138;24.746;2023-11-22T11:28:45;99208.56;;;13.68;99.83
4745;BME280;2386;42.138;24.746;2023-11-22T11:31:13;99212.06;;;13.64;97.55
4745;BME280;2386;42.138;24.746;2023-11-22T11:36:32;99202.22;;;13.58;98.45
4745;BME280;2386;42.138;24.746;2023-11-22T11:39:02;99199.50;;;13.58;97.23
4745;BME280;2386;42.138;24.746;2023-11-22T11:41:34;99192.19;;;13.63;97.50
4745;BME280;2386;42.138;24.746;2023-11-22T11:44:02;99199.97;;;13.87;96.53
4745;BME280;2386;42.138;24.746;2023-11-22T11:46:29;99201.41;;;13.94;95.74
4745;BME280;2386;42.138;24.746;2023-11-22T11:48:55;99200.09;;;14.02;95.15
4745;BME280;2386;42.138;24.746;2023-11-22T11:51:25;99204.44;;;14.03;94.41
4745;BME280;2386;42.138;24.746;2023-11-22T11:53:51;99212.13;;;14.11;94.19
4745;BME280;2386;42.138;24.746;2023-11-22T11:56:17;99198.06;;;14.39;94.38
4745;BME280;2386;42.138;24.746;2023-11-22T11:58:46;99197.44;;;14.22;93.14
4745;BME280;2386;42.138;24.746;2023-11-22T12:01:14;99196.78;;;14.52;92.09
4745;BME280;2386;42.138;24.746;2023-11-22T12:03:41;99209.13;;;14.60;91.81
4745;BME280;2386;42.138;24.746;2023-11-22T12:06:07;99202.00;;;14.54;92.10
4745;BME280;2386;42.138;24.746;2023-11-22T12:08:33;99201.72;;;14.55;91.21
4745;BME280;2386;42.138;24.746;2023-11-22T12:11:05;99198.25;;;14.80;91.46
4745;BME280;2386;42.138;24.746;2023-11-22T12:13:34;99185.19;;;15.02;89.68
4745;BME280;2386;42.138;24.746;2023-11-22T12:16:00;99181.38;;;15.08;90.15
4745;BME280;2386;42.138;24.746;2023-11-22T12:18:28;99186.84;;;15.13;92.64
4745;BME280;2386;42.138;24.746;2023-11-22T12:20:58;99185.75;;;15.15;89.42
4745;BME280;2386;42.138;24.746;2023-11-22T12:23:24;99184.66;;;15.05;90.25
4745;BME280;2386;42.138;24.746;2023-11-22T12:25:57;99186.03;;;15.13;90.79
4745;BME280;2386;42.138;24.746;2023-11-22T12:28:29;99195.59;;;15.21;93.49
4745;BME280;2386;42.138;24.746;2023-11-22T12:30:55;99194.22;;;15.18;90.18
4745;BME280;2386;42.138;24.746;2023-11-22T12:33:31;99179.69;;;14.92;90.53
4745;BME280;2386;42.138;24.746;2023-11-22T12:35:57;99175.34;;;15.06;92.64
4745;BME280;2386;42.138;24.746;2023-11-22T12:38:23;99187.41;;;15.26;91.08
4745;BME280;2386;42.138;24.746;2023-11-22T12:40:49;99189.06;;;15.32;92.79
4745;BME280;2386;42.138;24.746;2023-11-22T12:43:14;99198.91;;;15.38;91.61
4745;BME280;2386;42.138;24.746;2023-11-22T12:45:40;99198.91;;;15.48;90.30
4745;BME280;2386;42.138;24.746;2023-11-22T12:48:20;99206.56;;;15.51;88.45
4745;BME280;2386;42.138;24.746;2023-11-22T12:50:47;99215.06;;;15.60;86.96
4745;BME280;2386;42.138;24.746;2023-11-22T12:53:14;99218.59;;;15.70;86.89
4745;BME280;2386;42.138;24.746;2023-11-22T12:55:43;99224.59;;;15.72;89.28
4745;BME280;2386;42.138;24.746;2023-11-22T12:58:10;99230.63;;;15.74;86.73
4745;BME280;2386;42.138;24.746;2023-11-22T13:00:36;99227.34;;;15.77;84.87
4745;BME280;2386;42.138;24.746;2023-11-22T13:03:05;99226.50;;;15.77;85.63
4745;BME280;2386;42.138;24.746;2023-11-22T13:05:30;99228.16;;;15.78;86.75
4745;BME280;2386;42.138;24.746;2023-11-22T13:07:56;99224.59;;;15.77;87.09
4745;BME280;2386;42.138;24.746;2023-11-22T13:10:21;99233.63;;;15.73;87.34
4745;BME280;2386;42.138;24.746;2023-11-22T13:12:52;99237.19;;;15.78;86.60